Time;durP1;ratioP1;P1;durP2;ratioP2;P2;SDS_P1;SDS_P2;PMS_P1;PMS_P2;Temp;Humidity;BMP_temperature;BMP_pressure;BME280_temperature;BME280_humidity;BME280_pressure;Samples;Min_cycle;Max_cycle;Signal;HPM_P1;HPM_P2
2021/07/03 00:00:40;;;;;;;30.80;21.65;;;13.20;99.90;;;;;;5003208;28;20042;-72
2021/07/03 00:03:05;;;;;;;33.75;22.17;;;13.20;99.90;;;;;;5001058;28;20062;-70
2021/07/03 00:05:31;;;;;;;31.05;21.58;;;13.20;99.90;;;;;;5005022;28;20347;-72
2021/07/03 00:07:57;;;;;;;31.20;19.85;;;13.20;99.90;;;;;;5002940;28;20061;-72
2021/07/03 00:10:23;;;;;;;29.73;20.10;;;13.20;99.90;;;;;;5005184;28;20414;-72
2021/07/03 00:12:48;;;;;;;29.45;20.05;;;13.10;99.90;;;;;;5005036;28;20042;-72
2021/07/03 00:15:22;;;;;;;25.58;18.58;;;13.10;99.90;;;;;;5004874;28;20069;-73
2021/07/03 00:17:57;;;;;;;29.80;17.48;;;13.00;99.90;;;;;;4989428;28;20042;-72
2021/07/03 00:20:24;;;;;;;30.50;17.25;;;13.00;99.90;;;;;;4995998;28;20046;-72
2021/07/03 00:22:51;;;;;;;26.85;19.98;;;12.90;99.90;;;;;;4989055;28;20173;-72
2021/07/03 00:25:17;;;;;;;40.30;23.58;;;12.90;99.90;;;;;;4995843;28;20070;-72
2021/07/03 00:27:42;;;;;;;37.67;23.40;;;13.00;99.90;;;;;;4996098;28;20042;-71
2021/07/03 00:30:10;;;;;;;34.40;21.58;;;13.00;99.90;;;;;;4995666;28;20102;-71
2021/07/03 00:32:36;;;;;;;36.63;21.97;;;13.10;99.90;;;;;;4989884;28;20043;-71
2021/07/03 00:35:03;;;;;;;23.40;17.65;;;13.10;99.90;;;;;;5005546;28;20046;-71
2021/07/03 00:37:29;;;;;;;27.80;18.50;;;13.20;99.90;;;;;;5004741;28;20050;-72
2021/07/03 00:39:55;;;;;;;28.63;18.50;;;13.20;99.90;;;;;;5004649;28;20054;-72
2021/07/03 00:42:21;;;;;;;27.08;18.88;;;13.20;99.90;;;;;;4996046;28;20116;-71
2021/07/03 00:44:47;;;;;;;26.70;17.08;;;13.10;99.90;;;;;;5004563;28;20046;-72
2021/07/03 00:47:13;;;;;;;28.85;17.15;;;13.10;99.90;;;;;;4995002;28;20062;-73
2021/07/03 00:49:39;;;;;;;24.92;16.85;;;13.00;99.90;;;;;;4997094;28;20402;-72
2021/07/03 00:52:07;;;;;;;25.42;17.25;;;12.90;99.90;;;;;;4990791;28;20138;-71
2021/07/03 00:54:37;;;;;;;25.65;17.70;;;12.80;99.90;;;;;;4986694;28;20046;-72
2021/07/03 00:57:04;;;;;;;25.00;16.63;;;12.70;99.90;;;;;;4998291;28;20157;-72
2021/07/03 00:59:37;;;;;;;39.38;21.95;;;12.70;99.90;;;;;;5004210;28;20383;-72
2021/07/03 01:02:05;;;;;;;27.85;19.45;;;12.70;99.90;;;;;;5003382;28;20046;-73
2021/07/03 01:04:31;;;;;;;28.90;18.23;;;12.70;99.90;;;;;;5003493;28;20053;-73
2021/07/03 01:06:57;;;;;;;31.40;18.90;;;12.60;99.90;;;;;;4995361;28;20057;-73
2021/07/03 01:09:23;;;;;;;29.38;18.38;;;12.60;99.90;;;;;;4994320;28;20055;-72
2021/07/03 01:11:50;;;;;;;30.73;18.80;;;12.60;99.90;;;;;;5004580;28;20065;-72
2021/07/03 01:14:16;;;;;;;30.92;18.95;;;12.60;99.90;;;;;;4988653;28;20077;-73
2021/07/03 01:16:43;;;;;;;33.58;18.08;;;12.50;99.90;;;;;;4991838;28;20062;-72
2021/07/03 01:19:09;;;;;;;37.35;21.60;;;12.50;99.90;;;;;;5000657;28;20039;-72
2021/07/03 01:21:36;;;;;;;26.52;19.13;;;12.50;99.90;;;;;;4990338;28;20061;-72
2021/07/03 01:24:02;;;;;;;35.75;18.67;;;12.50;99.90;;;;;;4993000;28;20042;-72
2021/07/03 01:26:27;;;;;;;35.65;22.33;;;12.40;99.90;;;;;;4988366;28;20609;-72
2021/07/03 01:28:53;;;;;;;30.67;17.35;;;12.40;99.90;;;;;;4993582;28;20050;-72
2021/07/03 01:31:19;;;;;;;37.15;19.13;;;12.30;99.90;;;;;;4986567;28;20711;-72
2021/07/03 01:33:45;;;;;;;29.02;19.67;;;12.20;99.90;;;;;;4994543;28;20317;-73
2021/07/03 01:36:11;;;;;;;37.60;19.30;;;12.30;99.90;;;;;;5001076;28;20047;-73
2021/07/03 01:38:37;;;;;;;32.75;20.65;;;12.30;99.90;;;;;;4995378;28;20046;-73
2021/07/03 01:41:03;;;;;;;33.03;19.90;;;12.30;99.90;;;;;;4989369;28;20086;-72
2021/07/03 01:43:29;;;;;;;37.33;21.40;;;12.20;99.90;;;;;;5000808;28;20054;-72
2021/07/03 01:45:56;;;;;;;50.08;23.40;;;12.30;99.90;;;;;;4990773;28;20459;-72
2021/07/03 01:48:27;;;;;;;51.65;26.77;;;12.30;99.90;;;;;;4995900;28;20047;-70
2021/07/03 01:50:54;;;;;;;49.97;22.92;;;12.30;99.90;;;;;;4988549;28;20051;-73
2021/07/03 01:53:21;;;;;;;32.17;18.92;;;12.30;99.90;;;;;;4995703;28;20062;-73
2021/07/03 01:55:48;;;;;;;40.50;21.58;;;12.20;99.90;;;;;;4988724;28;20062;-72
2021/07/03 01:58:20;;;;;;;36.28;22.02;;;12.20;99.90;;;;;;4993942;28;20391;-72
2021/07/03 02:00:50;;;;;;;36.70;23.30;;;12.10;99.90;;;;;;4995404;28;20097;-72
2021/07/03 02:03:16;;;;;;;31.35;19.98;;;12.00;99.90;;;;;;4998521;28;20050;-72
2021/07/03 02:05:42;;;;;;;35.05;20.30;;;12.00;99.90;;;;;;5003168;28;20074;-72
2021/07/03 02:08:09;;;;;;;32.70;20.00;;;12.10;99.90;;;;;;5001777;28;20050;-72
2021/07/03 02:10:34;;;;;;;29.30;20.10;;;12.00;99.90;;;;;;4989215;28;20042;-71
2021/07/03 02:13:00;;;;;;;35.17;19.40;;;12.00;99.90;;;;;;4994677;28;20051;-71
2021/07/03 02:15:26;;;;;;;36.50;20.30;;;12.00;99.90;;;;;;4994208;28;20046;-72
2021/07/03 02:17:52;;;;;;;28.10;18.23;;;12.00;99.90;;;;;;4996529;28;20128;-72
2021/07/03 02:20:18;;;;;;;40.80;20.27;;;12.00;99.90;;;;;;4999039;28;20089;-72
2021/07/03 02:22:44;;;;;;;27.88;17.90;;;12.00;99.90;;;;;;5006262;28;20073;-70
2021/07/03 02:25:10;;;;;;;36.28;20.75;;;12.00;99.90;;;;;;5007136;28;20057;-71
2021/07/03 02:27:37;;;;;;;32.53;19.98;;;11.90;99.90;;;;;;5007312;28;20077;-72
2021/07/03 02:30:07;;;;;;;34.15;20.42;;;11.90;99.90;;;;;;5006344;28;20077;-72
2021/07/03 02:32:34;;;;;;;46.65;26.42;;;11.70;99.90;;;;;;5006030;28;20070;-72
2021/07/03 02:35:00;;;;;;;53.13;27.38;;;11.80;99.90;;;;;;5005444;28;20050;-72
2021/07/03 02:37:25;;;;;;;59.15;28.50;;;11.90;99.90;;;;;;5006622;28;20100;-72
2021/07/03 02:39:51;;;;;;;55.90;30.60;;;12.10;99.90;;;;;;5000338;28;20050;-72
2021/07/03 02:42:17;;;;;;;57.00;27.25;;;12.20;99.90;;;;;;5006669;28;20042;-73
2021/07/03 02:44:43;;;;;;;44.20;24.55;;;12.20;99.90;;;;;;4987060;28;20130;-72
2021/07/03 02:47:09;;;;;;;59.58;26.27;;;12.20;99.90;;;;;;4993836;28;20051;-72
2021/07/03 02:49:34;;;;;;;38.92;21.90;;;12.10;99.90;;;;;;5005467;28;20533;-72
2021/07/03 02:52:00;;;;;;;39.28;23.23;;;12.00;99.90;;;;;;4998788;28;20043;-72
2021/07/03 02:54:26;;;;;;;35.47;21.15;;;11.90;99.90;;;;;;4991279;28;20073;-71
2021/07/03 02:56:57;;;;;;;39.45;20.13;;;11.90;99.90;;;;;;4993566;28;20480;-74
2021/07/03 02:59:24;;;;;;;37.75;20.17;;;11.80;99.90;;;;;;4995922;28;20832;-70
2021/07/03 03:01:49;;;;;;;28.50;18.10;;;11.70;99.90;;;;;;5000873;28;20049;-71
2021/07/03 03:04:15;;;;;;;39.53;20.40;;;11.70;99.90;;;;;;5001558;28;20050;-71
2021/07/03 03:06:41;;;;;;;43.05;20.92;;;11.70;99.90;;;;;;5003243;28;20050;-72
2021/07/03 03:09:07;;;;;;;39.15;19.77;;;11.70;99.90;;;;;;4991605;28;20058;-72
2021/07/03 03:11:33;;;;;;;53.08;24.05;;;11.60;99.90;;;;;;5000218;28;20054;-72
2021/07/03 03:13:58;;;;;;;29.85;19.05;;;11.70;99.90;;;;;;4993187;28;20111;-72
2021/07/03 03:16:26;;;;;;;31.13;18.52;;;11.70;99.90;;;;;;4997297;28;20101;-70
2021/07/03 03:18:53;;;;;;;32.65;20.25;;;11.70;99.90;;;;;;4995280;28;20076;-72
2021/07/03 03:21:18;;;;;;;31.45;19.70;;;11.60;99.90;;;;;;4995319;28;20061;-73
2021/07/03 03:23:44;;;;;;;30.83;17.55;;;11.60;99.90;;;;;;4996853;28;20047;-71
2021/07/03 03:26:10;;;;;;;34.25;18.42;;;11.60;99.90;;;;;;4992736;28;20065;-72
2021/07/03 03:28:36;;;;;;;38.70;21.10;;;11.50;99.90;;;;;;5006391;28;20053;-72
2021/07/03 03:31:05;;;;;;;34.03;18.58;;;11.50;99.90;;;;;;4991667;28;20051;-72
2021/07/03 03:33:31;;;;;;;41.08;19.98;;;11.40;99.90;;;;;;4998739;28;20047;-72
2021/07/03 03:35:57;;;;;;;43.70;21.60;;;11.40;99.90;;;;;;5005537;28;20081;-71
2021/07/03 03:38:22;;;;;;;57.28;26.35;;;11.40;99.90;;;;;;4998871;28;20080;-72
2021/07/03 03:40:48;;;;;;;49.55;25.73;;;11.60;99.90;;;;;;4992051;28;20057;-72
2021/07/03 03:43:14;;;;;;;55.85;26.25;;;11.80;99.90;;;;;;5001390;28;20058;-72
2021/07/03 03:45:40;;;;;;;36.85;22.45;;;12.00;99.90;;;;;;4997949;28;20407;-72
2021/07/03 03:48:06;;;;;;;46.13;25.55;;;11.90;99.90;;;;;;5000057;28;20042;-71
2021/07/03 03:50:33;;;;;;;49.78;24.75;;;11.90;99.90;;;;;;4993811;28;21220;-71
2021/07/03 03:53:00;;;;;;;43.00;22.75;;;11.90;99.90;;;;;;4990569;28;20065;-70
2021/07/03 03:55:27;;;;;;;37.75;20.95;;;11.80;99.90;;;;;;4996524;28;20062;-71
2021/07/03 03:57:53;;;;;;;33.80;19.73;;;11.80;99.90;;;;;;5002553;28;20517;-72
2021/07/03 04:00:19;;;;;;;36.58;20.45;;;11.70;99.90;;;;;;4997730;28;20054;-72
2021/07/03 04:02:46;;;;;;;31.15;18.25;;;11.70;99.90;;;;;;4987697;28;20070;-71
2021/07/03 04:05:12;;;;;;;31.35;17.17;;;11.70;99.90;;;;;;5000194;28;20391;-71
2021/07/03 04:07:38;;;;;;;24.85;15.05;;;11.70;99.90;;;;;;4993659;28;20474;-72
2021/07/03 04:10:07;;;;;;;29.77;14.73;;;11.60;99.90;;;;;;4994343;28;20047;-72
2021/07/03 04:12:33;;;;;;;20.52;13.90;;;11.60;99.90;;;;;;4987784;28;20062;-71
2021/07/03 04:14:59;;;;;;;25.23;14.40;;;11.60;99.90;;;;;;4998964;28;20050;-70
2021/07/03 04:17:26;;;;;;;18.65;12.38;;;11.60;99.90;;;;;;4988173;28;20492;-71
2021/07/03 04:19:53;;;;;;;17.83;12.48;;;11.70;99.90;;;;;;4999564;28;20038;-72
2021/07/03 04:22:18;;;;;;;20.55;11.10;;;11.60;99.90;;;;;;4987366;28;20043;-71
2021/07/03 04:24:45;;;;;;;12.15;9.18;;;11.70;99.90;;;;;;4993037;28;20514;-71
2021/07/03 04:27:11;;;;;;;15.73;9.10;;;11.70;99.90;;;;;;4989208;28;20126;-71
2021/07/03 04:29:37;;;;;;;23.23;12.70;;;11.70;99.90;;;;;;4995533;28;20046;-71
2021/07/03 04:32:04;;;;;;;19.85;11.23;;;11.80;99.90;;;;;;5001710;28;20192;-71
2021/07/03 04:34:31;;;;;;;17.08;10.40;;;11.80;99.90;;;;;;4989426;28;20442;-71
2021/07/03 04:36:58;;;;;;;15.00;10.20;;;11.90;99.90;;;;;;5003868;28;20050;-70
2021/07/03 04:39:24;;;;;;;15.23;10.60;;;12.00;99.90;;;;;;5004504;28;20053;-71
2021/07/03 04:41:51;;;;;;;21.23;12.15;;;12.10;99.90;;;;;;4994112;28;20058;-71
2021/07/03 04:44:17;;;;;;;20.23;12.70;;;12.10;99.90;;;;;;4990086;28;20042;-72
2021/07/03 04:46:44;;;;;;;20.92;12.25;;;12.30;99.90;;;;;;5000760;28;20391;-70
2021/07/03 04:49:10;;;;;;;28.92;16.08;;;12.30;99.90;;;;;;4987923;28;20046;-69
2021/07/03 04:51:36;;;;;;;27.60;15.50;;;12.50;99.90;;;;;;4999348;28;20118;-70
2021/07/03 04:54:02;;;;;;;24.48;15.20;;;12.60;99.90;;;;;;5004072;28;20054;-70
2021/07/03 04:56:28;;;;;;;27.65;15.02;;;12.70;99.90;;;;;;5000406;28;20046;-70
2021/07/03 04:58:55;;;;;;;26.25;16.05;;;12.70;99.90;;;;;;4993203;28;20051;-71
2021/07/03 05:01:21;;;;;;;18.63;12.23;;;12.80;99.90;;;;;;4998516;28;20082;-70
2021/07/03 05:03:47;;;;;;;21.10;14.68;;;13.00;99.90;;;;;;4992942;28;20097;-69
2021/07/03 05:06:13;;;;;;;18.13;11.75;;;13.20;99.90;;;;;;4985811;28;20121;-70
2021/07/03 05:08:39;;;;;;;19.33;13.85;;;13.40;99.90;;;;;;4992214;28;20050;-70
2021/07/03 05:11:05;;;;;;;23.38;13.13;;;13.60;99.90;;;;;;4985499;28;20491;-70
2021/07/03 05:13:31;;;;;;;24.80;14.30;;;13.70;99.90;;;;;;4998016;28;20043;-69
2021/07/03 05:15:57;;;;;;;19.90;12.77;;;13.80;99.90;;;;;;4985476;28;20050;-70
2021/07/03 05:18:22;;;;;;;17.67;13.27;;;13.80;99.90;;;;;;4998480;28;20056;-72
2021/07/03 05:20:48;;;;;;;17.67;13.68;;;13.90;99.90;;;;;;4985366;28;20051;-72
2021/07/03 05:23:14;;;;;;;21.70;14.20;;;14.00;99.90;;;;;;4992634;28;20106;-70
2021/07/03 05:25:42;;;;;;;20.05;14.30;;;14.20;99.90;;;;;;4985428;28;20054;-70
2021/07/03 05:28:08;;;;;;;19.85;14.38;;;14.40;99.90;;;;;;4996820;28;20050;-70
2021/07/03 05:30:34;;;;;;;19.25;14.65;;;14.50;99.90;;;;;;4986860;28;20042;-70
2021/07/03 05:33:03;;;;;;;19.58;12.10;;;14.70;99.90;;;;;;4995068;28;20081;-70
2021/07/03 05:35:29;;;;;;;13.32;10.98;;;14.80;99.90;;;;;;4988378;28;20035;-70
2021/07/03 05:37:55;;;;;;;25.45;11.75;;;15.10;99.90;;;;;;4992872;28;20114;-70
2021/07/03 05:40:21;;;;;;;13.30;10.25;;;15.30;99.90;;;;;;4990753;28;20060;-70
2021/07/03 05:42:47;;;;;;;18.17;9.98;;;15.50;99.90;;;;;;4991508;28;20475;-71
2021/07/03 05:45:15;;;;;;;19.85;10.00;;;15.70;99.90;;;;;;4991511;28;20051;-70
2021/07/03 05:47:49;;;;;;;14.65;9.10;;;15.70;99.90;;;;;;4989451;28;20046;-71
2021/07/03 05:50:16;;;;;;;11.00;8.10;;;16.00;99.90;;;;;;4984195;28;20049;-70
2021/07/03 05:52:43;;;;;;;9.35;6.22;;;16.20;99.90;;;;;;5003775;28;20053;-70
2021/07/03 05:55:09;;;;;;;15.23;6.00;;;16.30;99.90;;;;;;4997657;28;20051;-70
2021/07/03 05:57:35;;;;;;;9.50;4.93;;;16.50;99.90;;;;;;5003361;28;20054;-70
2021/07/03 06:00:02;;;;;;;7.53;4.63;;;16.60;99.90;;;;;;5003110;28;20042;-71
2021/07/03 06:02:27;;;;;;;6.47;3.97;;;16.60;99.90;;;;;;4992253;28;20110;-71
2021/07/03 06:04:53;;;;;;;8.85;4.85;;;16.60;99.90;;;;;;4998020;28;20062;-71
2021/07/03 06:07:19;;;;;;;10.10;5.43;;;16.50;99.90;;;;;;4990932;28;20127;-70
2021/07/03 06:09:45;;;;;;;9.27;4.65;;;16.60;99.90;;;;;;4997064;28;20080;-71
2021/07/03 06:12:10;;;;;;;10.98;4.88;;;16.80;99.90;;;;;;4990797;28;20058;-71
2021/07/03 06:14:36;;;;;;;11.60;5.15;;;16.80;99.90;;;;;;4990748;28;20574;-73
2021/07/03 06:17:02;;;;;;;9.35;4.38;;;16.80;99.90;;;;;;4990775;28;20085;-71
2021/07/03 06:19:28;;;;;;;8.80;5.43;;;16.90;99.90;;;;;;4995100;28;20096;-69
2021/07/03 06:21:54;;;;;;;8.98;5.35;;;17.10;99.90;;;;;;4993465;28;20035;-72
2021/07/03 06:24:20;;;;;;;8.65;5.10;;;17.40;99.90;;;;;;4992988;28;20077;-72
2021/07/03 06:26:45;;;;;;;11.18;4.65;;;17.60;99.90;;;;;;4995468;28;20043;-71
2021/07/03 06:29:11;;;;;;;18.95;5.82;;;17.80;99.90;;;;;;4991073;28;20122;-71
2021/07/03 06:31:37;;;;;;;8.00;5.55;;;18.00;99.90;;;;;;5002908;28;20042;-71
2021/07/03 06:34:03;;;;;;;11.73;5.35;;;18.10;99.90;;;;;;4990181;28;20052;-71
2021/07/03 06:36:30;;;;;;;8.50;6.63;;;18.30;99.90;;;;;;5001927;28;20046;-71
2021/07/03 06:38:56;;;;;;;11.60;6.13;;;18.60;99.90;;;;;;4999691;28;20066;-70
2021/07/03 06:41:23;;;;;;;9.18;6.82;;;18.40;99.90;;;;;;4992839;28;20116;-70
2021/07/03 06:43:49;;;;;;;8.57;5.22;;;18.20;99.90;;;;;;4989159;28;20050;-70
2021/07/03 06:46:14;;;;;;;8.77;5.03;;;18.00;99.90;;;;;;4990750;28;20066;-70
2021/07/03 06:48:40;;;;;;;10.65;4.93;;;18.00;99.90;;;;;;4990473;28;20049;-71
2021/07/03 06:51:07;;;;;;;11.52;6.10;;;18.10;99.90;;;;;;4989238;28;20050;-71
2021/07/03 06:53:33;;;;;;;9.57;4.60;;;18.50;99.90;;;;;;4996276;28;20101;-71
2021/07/03 06:56:01;;;;;;;9.02;6.13;;;18.90;99.90;;;;;;4988281;28;20050;-71
2021/07/03 06:58:27;;;;;;;8.32;5.38;;;19.20;99.90;;;;;;5002137;28;20061;-71
2021/07/03 07:00:52;;;;;;;9.45;4.70;;;19.60;99.90;;;;;;5004559;28;20042;-71
2021/07/03 07:03:18;;;;;;;6.30;4.22;;;19.80;99.90;;;;;;5001806;28;20465;-71
2021/07/03 07:05:44;;;;;;;15.30;6.10;;;19.90;99.90;;;;;;4988311;28;20047;-70
2021/07/03 07:08:09;;;;;;;5.78;4.15;;;20.00;99.90;;;;;;5000802;28;20058;-71
2021/07/03 07:10:35;;;;;;;9.18;5.00;;;20.00;99.90;;;;;;4992312;28;20062;-71
2021/07/03 07:13:08;;;;;;;7.40;4.43;;;19.70;99.90;;;;;;5000174;28;20053;-71
2021/07/03 07:15:34;;;;;;;10.02;5.10;;;20.00;99.90;;;;;;4991906;28;20519;-71
2021/07/03 07:18:00;;;;;;;7.75;4.55;;;20.30;99.90;;;;;;4999493;28;20073;-70
2021/07/03 07:20:26;;;;;;;7.65;3.90;;;20.30;99.90;;;;;;5005125;28;20043;-71
2021/07/03 07:22:52;;;;;;;10.15;5.20;;;20.00;99.90;;;;;;5006170;28;20465;-71
2021/07/03 07:25:18;;;;;;;8.90;4.70;;;19.90;99.90;;;;;;5002679;28;20138;-71
2021/07/03 07:27:43;;;;;;;9.65;4.30;;;19.80;99.90;;;;;;4993432;28;20043;-71
2021/07/03 07:30:10;;;;;;;9.57;4.05;;;20.00;99.90;;;;;;4999106;28;20102;-69
2021/07/03 07:32:36;;;;;;;9.48;4.55;;;20.40;99.90;;;;;;5006271;28;20061;-71
2021/07/03 07:35:02;;;;;;;9.20;4.82;;;20.20;99.90;;;;;;4992704;28;20046;-71
2021/07/03 07:37:29;;;;;;;9.35;5.03;;;20.20;99.90;;;;;;4991885;28;20038;-72
2021/07/03 07:39:54;;;;;;;9.52;5.05;;;20.00;99.90;;;;;;5000988;28;20051;-71
2021/07/03 07:42:20;;;;;;;8.45;3.85;;;20.20;99.90;;;;;;4992684;28;20035;-70
2021/07/03 07:44:46;;;;;;;7.13;4.07;;;20.70;99.90;;;;;;4997780;28;20142;-70
2021/07/03 07:47:12;;;;;;;7.53;3.80;;;21.10;99.90;;;;;;5005258;28;20048;-72
2021/07/03 07:49:37;;;;;;;7.63;4.45;;;21.30;99.90;;;;;;5004369;28;20053;-71
2021/07/03 07:52:03;;;;;;;6.63;3.80;;;21.00;99.90;;;;;;4997004;28;20046;-72
2021/07/03 07:54:29;;;;;;;8.32;3.55;;;20.90;99.90;;;;;;5003484;28;20047;-70
2021/07/03 07:56:59;;;;;;;7.90;3.63;;;20.60;99.90;;;;;;5003569;28;20121;-71
2021/07/03 07:59:27;;;;;;;11.55;3.53;;;20.50;99.90;;;;;;5001219;28;20069;-70
2021/07/03 08:01:53;;;;;;;6.45;4.00;;;20.70;99.90;;;;;;4996515;28;20601;-71
2021/07/03 08:04:19;;;;;;;5.78;3.13;;;20.70;99.90;;;;;;5002493;28;20054;-69
2021/07/03 08:06:45;;;;;;;6.10;3.30;;;20.70;99.90;;;;;;5000299;28;20049;-69
2021/07/03 08:09:11;;;;;;;9.25;4.35;;;20.70;99.90;;;;;;4992191;28;20121;-71
2021/07/03 08:11:36;;;;;;;4.40;3.28;;;20.70;99.90;;;;;;4999961;28;20125;-70
2021/07/03 08:14:03;;;;;;;8.85;3.55;;;20.60;99.90;;;;;;4994566;28;20112;-70
2021/07/03 08:16:29;;;;;;;6.32;3.83;;;20.60;99.90;;;;;;4989562;28;20097;-71
2021/07/03 08:18:55;;;;;;;9.40;3.22;;;20.50;99.90;;;;;;4997311;28;20053;-70
2021/07/03 08:21:21;;;;;;;5.28;3.35;;;20.40;99.90;;;;;;4994609;28;20070;-70
2021/07/03 08:23:47;;;;;;;7.40;3.55;;;20.40;99.90;;;;;;4997071;28;20058;-73
2021/07/03 08:26:13;;;;;;;7.72;3.78;;;20.00;99.90;;;;;;4997109;28;20046;-69
2021/07/03 08:28:38;;;;;;;7.93;3.50;;;20.10;99.90;;;;;;4992476;28;20108;-71
2021/07/03 08:31:04;;;;;;;13.55;3.90;;;20.30;99.90;;;;;;4992358;28;20046;-71
2021/07/03 08:33:30;;;;;;;6.38;3.47;;;20.40;99.90;;;;;;4997280;28;20184;-70
2021/07/03 08:35:56;;;;;;;7.68;3.40;;;20.70;99.90;;;;;;4996787;28;20110;-69
2021/07/03 08:38:24;;;;;;;9.65;4.13;;;20.70;99.90;;;;;;4997019;28;20046;-70
2021/07/03 08:40:50;;;;;;;9.57;4.30;;;20.60;99.90;;;;;;4994404;28;20042;-71
2021/07/03 08:43:15;;;;;;;10.63;4.35;;;20.60;99.90;;;;;;4993006;28;20045;-72
2021/07/03 08:45:41;;;;;;;8.55;4.03;;;20.60;99.90;;;;;;4992934;28;20038;-71
2021/07/03 08:48:07;;;;;;;9.90;4.38;;;20.60;99.90;;;;;;4995390;28;20491;-70
2021/07/03 08:50:33;;;;;;;9.48;4.28;;;20.70;99.90;;;;;;5004067;28;20050;-73
2021/07/03 08:52:59;;;;;;;8.70;4.70;;;20.70;99.90;;;;;;4993744;28;20046;-72
2021/07/03 08:55:26;;;;;;;12.05;5.20;;;20.90;99.90;;;;;;4988386;28;20046;-72
2021/07/03 08:57:59;;;;;;;7.35;4.57;;;21.00;99.90;;;;;;4996722;28;20130;-71
2021/07/03 09:00:41;;;;;;;7.18;4.57;;;21.30;99.90;;;;;;4995138;28;20130;-68
2021/07/03 09:03:21;;;;;;;7.40;3.97;;;21.40;99.90;;;;;;4995210;28;20053;-70
2021/07/03 09:05:55;;;;;;;11.52;4.45;;;21.40;99.90;;;;;;4992311;28;20038;-70
2021/07/03 09:08:23;;;;;;;9.10;3.97;;;21.30;99.90;;;;;;4991227;28;20122;-69
2021/07/03 09:11:00;;;;;;;6.63;4.18;;;21.20;99.90;;;;;;4999918;28;20046;-70
2021/07/03 09:13:26;;;;;;;8.75;4.00;;;21.00;99.90;;;;;;4999846;28;20038;-72
2021/07/03 09:15:52;;;;;;;7.90;5.00;;;21.20;99.90;;;;;;4998644;28;20101;-72
2021/07/03 09:18:18;;;;;;;5.97;4.07;;;21.00;99.90;;;;;;5002363;28;20410;-70
2021/07/03 09:20:53;;;;;;;6.43;4.37;;;21.20;99.90;;;;;;4990965;28;20913;-71
2021/07/03 09:23:24;;;;;;;8.60;4.43;;;21.50;99.90;;;;;;4998835;28;20039;-71
2021/07/03 09:25:57;;;;;;;10.57;3.88;;;21.70;99.90;;;;;;4995977;28;20557;-71
2021/07/03 09:28:30;;;;;;;5.93;4.03;;;21.80;99.90;;;;;;4997605;28;20043;-70
2021/07/03 09:31:00;;;;;;;8.77;4.63;;;21.70;99.90;;;;;;4993028;28;20051;-71
2021/07/03 09:33:28;;;;;;;8.98;5.32;;;21.50;99.90;;;;;;5002020;28;20046;-69
2021/07/03 09:35:56;;;;;;;8.45;5.35;;;21.30;99.90;;;;;;4994735;28;20047;-71
2021/07/03 09:38:35;;;;;;;11.70;4.93;;;21.50;99.90;;;;;;4988522;28;20047;-71
2021/07/03 09:41:13;;;;;;;9.93;5.80;;;21.80;99.90;;;;;;4996316;28;20047;-71
2021/07/03 09:43:50;;;;;;;10.35;5.32;;;22.10;99.90;;;;;;5001527;28;20415;-71
2021/07/03 09:46:49;;;;;;;11.75;5.32;;;21.70;99.90;;;;;;4989954;28;20527;-72
2021/07/03 09:49:18;;;;;;;14.18;5.68;;;22.00;99.90;;;;;;4990923;28;20062;-71
2021/07/03 09:51:51;;;;;;;15.60;5.47;;;22.00;99.90;;;;;;4995506;28;20077;-69
2021/07/03 09:54:19;;;;;;;8.95;5.25;;;22.10;99.90;;;;;;5003652;28;20085;-69
2021/07/03 09:56:45;;;;;;;10.07;6.28;;;22.00;99.90;;;;;;4989229;28;20141;-70
2021/07/03 09:59:12;;;;;;;14.00;5.37;;;22.10;99.90;;;;;;4999270;28;20058;-70
2021/07/03 10:01:44;;;;;;;12.30;5.65;;;21.90;99.90;;;;;;4989939;28;20038;-70
2021/07/03 10:04:11;;;;;;;6.60;5.15;;;22.30;99.90;;;;;;4994082;28;20089;-72
2021/07/03 10:06:42;;;;;;;14.85;7.13;;;22.30;99.90;;;;;;4997844;28;20093;-75
2021/07/03 10:09:12;;;;;;;11.40;5.00;;;22.50;99.90;;;;;;4993943;28;20050;-73
2021/07/03 10:11:46;;;;;;;10.13;5.05;;;22.50;99.90;;;;;;4990761;28;20058;-76
2021/07/03 10:14:13;;;;;;;8.25;4.45;;;22.70;99.90;;;;;;4994054;28;20046;-74
2021/07/03 10:16:39;;;;;;;5.32;4.20;;;22.70;99.90;;;;;;4988914;28;20046;-77
2021/07/03 10:19:06;;;;;;;7.85;4.85;;;22.90;99.90;;;;;;4998641;28;20050;-76
2021/07/03 10:21:32;;;;;;;10.95;5.88;;;22.80;99.90;;;;;;4988046;28;20051;-66
2021/07/03 10:23:58;;;;;;;8.07;4.65;;;22.70;99.90;;;;;;4997452;28;20046;-65
2021/07/03 10:26:37;;;;;;;8.85;5.03;;;22.60;99.90;;;;;;5001073;28;20057;-65
2021/07/03 10:29:21;;;;;;;15.45;5.00;;;22.50;99.90;;;;;;4993684;28;20050;-66
2021/07/03 10:31:49;;;;;;;7.57;4.47;;;22.60;99.90;;;;;;4995046;28;20094;-66
2021/07/03 10:34:26;;;;;;;11.10;5.72;;;22.70;99.90;;;;;;4990825;28;20054;-76
2021/07/03 10:37:04;;;;;;;9.57;5.40;;;22.70;99.90;;;;;;4997311;28;20058;-73
2021/07/03 10:39:31;;;;;;;7.90;4.82;;;22.90;99.90;;;;;;4996320;28;20569;-73
2021/07/03 10:41:57;;;;;;;8.70;4.80;;;22.90;99.90;;;;;;4996695;28;20111;-66
2021/07/03 10:44:23;;;;;;;8.75;4.95;;;23.10;99.90;;;;;;5001487;28;20333;-72
2021/07/03 10:46:51;;;;;;;7.15;3.53;;;23.40;99.90;;;;;;4995620;28;20662;-65
2021/07/03 10:49:30;;;;;;;4.65;3.20;;;23.50;96.30;;;;;;4993869;28;20051;-71
2021/07/03 10:51:56;;;;;;;7.82;4.03;;;23.50;96.80;;;;;;5002932;28;20054;-71
2021/07/03 10:54:24;;;;;;;8.55;4.47;;;23.60;97.40;;;;;;5002547;28;20046;-70
2021/07/03 10:56:51;;;;;;;9.30;4.03;;;23.20;95.00;;;;;;4995950;28;20054;-71
2021/07/03 10:59:23;;;;;;;8.55;4.32;;;23.10;96.20;;;;;;4988352;28;20053;-70
2021/07/03 11:01:51;;;;;;;7.18;3.97;;;23.30;96.40;;;;;;4996292;28;20095;-70
2021/07/03 11:04:19;;;;;;;6.07;3.58;;;23.50;98.20;;;;;;5005988;28;20046;-70
2021/07/03 11:06:47;;;;;;;5.38;3.67;;;23.90;98.70;;;;;;4996603;28;20502;-70
2021/07/03 11:09:31;;;;;;;4.43;3.15;;;24.10;98.10;;;;;;4995369;28;20051;-70
2021/07/03 11:12:21;;;;;;;5.90;4.00;;;24.40;97.10;;;;;;5002820;28;20053;-70
2021/07/03 11:14:58;;;;;;;8.30;3.83;;;24.70;97.10;;;;;;4997708;28;20058;-72
2021/07/03 11:17:26;;;;;;;5.78;3.40;;;24.80;95.40;;;;;;4998696;28;20054;-71
2021/07/03 11:19:54;;;;;;;7.70;4.15;;;24.90;97.10;;;;;;4988818;28;20062;-71
2021/07/03 11:22:22;;;;;;;5.55;3.65;;;25.00;95.80;;;;;;5006612;28;20046;-70
2021/07/03 11:24:53;;;;;;;8.93;3.75;;;25.20;97.30;;;;;;4993365;28;20045;-70
2021/07/03 11:27:28;;;;;;;7.10;3.53;;;25.20;94.40;;;;;;5000080;28;20042;-70
2021/07/03 11:29:54;;;;;;;5.95;3.80;;;25.10;94.70;;;;;;4989486;28;20047;-71
2021/07/03 11:32:20;;;;;;;6.00;3.80;;;25.40;95.80;;;;;;5000068;28;20070;-70
2021/07/03 11:34:56;;;;;;;5.78;3.40;;;25.40;95.90;;;;;;4989618;28;20051;-70
2021/07/03 11:37:33;;;;;;;8.85;4.50;;;25.70;95.90;;;;;;5000017;28;20065;-70
2021/07/03 11:40:11;;;;;;;5.20;4.00;;;26.00;94.50;;;;;;5001725;28;20050;-70
2021/07/03 11:42:44;;;;;;;5.43;3.80;;;25.80;93.80;;;;;;4999903;28;20066;-69
2021/07/03 11:45:12;;;;;;;8.68;4.35;;;25.30;93.10;;;;;;4989534;28;20121;-72
2021/07/03 11:47:47;;;;;;;7.97;4.22;;;25.10;89.50;;;;;;4995224;28;20046;-70
2021/07/03 11:50:30;;;;;;;4.90;3.80;;;24.80;94.10;;;;;;5001056;28;20125;-70
2021/07/03 11:52:57;;;;;;;4.80;3.42;;;24.50;93.10;;;;;;4990345;28;20047;-70
2021/07/03 11:55:35;;;;;;;5.13;3.42;;;24.60;93.40;;;;;;4996071;28;20055;-71
2021/07/03 11:58:02;;;;;;;8.43;4.25;;;25.00;92.60;;;;;;4992392;28;20043;-71
2021/07/03 12:00:37;;;;;;;7.03;3.33;;;25.40;94.00;;;;;;4996866;28;20043;-71
2021/07/03 12:03:09;;;;;;;5.78;4.15;;;26.00;91.60;;;;;;4987460;28;20065;-71
2021/07/03 12:05:38;;;;;;;6.05;3.40;;;26.20;91.30;;;;;;4992216;28;20137;-71
2021/07/03 12:08:12;;;;;;;3.78;2.95;;;26.00;93.10;;;;;;4992561;28;20065;-69
2021/07/03 12:10:40;;;;;;;4.93;3.08;;;25.70;93.20;;;;;;4996943;28;20053;-71
2021/07/03 12:13:17;;;;;;;4.72;3.08;;;25.20;91.70;;;;;;4987588;28;20074;-70
2021/07/03 12:15:43;;;;;;;4.13;2.67;;;24.50;86.10;;;;;;4993833;28;20043;-70
2021/07/03 12:18:09;;;;;;;6.15;2.80;;;24.70;91.50;;;;;;4987212;28;20078;-70
2021/07/03 12:20:35;;;;;;;7.50;3.15;;;24.80;86.10;;;;;;4994369;28;20039;-70
2021/07/03 12:23:03;;;;;;;5.72;2.88;;;24.70;90.60;;;;;;4987680;28;20070;-71
2021/07/03 12:25:31;;;;;;;4.63;2.47;;;25.40;91.30;;;;;;4998900;28;20042;-69
2021/07/03 12:28:05;;;;;;;2.60;2.40;;;25.50;76.40;;;;;;4987637;28;20099;-70
2021/07/03 12:30:33;;;;;;;5.45;3.22;;;26.40;77.10;;;;;;4998714;28;20062;-71
2021/07/03 12:33:08;;;;;;;5.35;3.47;;;25.90;85.70;;;;;;4987720;28;20070;-70
2021/07/03 12:35:52;;;;;;;4.20;2.65;;;26.30;90.40;;;;;;5003221;28;20058;-71
2021/07/03 12:38:27;;;;;;;4.32;3.08;;;27.10;87.80;;;;;;4993024;28;20434;-70